Terminal Aerodrome Forecast
Issued by NWS

Home | Current Version | Previous Version | Text Only | Print | Product List | Glossary On
Versions: 1 2 3 4 5 6 7 8 9 10 11 12 13 14
000
FTUS46 KPDT 190500
TAFALW
TAF
KALW 190527Z 1906/2006 20011KT P6SM SCT070 BKN080 BKN250
     FM191200 20009KT P6SM FEW200
     FM191600 22009G15KT P6SM FEW200
     FM192100 22009KT P6SM FEW120
     FM200400 13006KT P6SM SKC=

USA.gov is the U.S. government's official web portal to all federal, state and local government web resources and services.